Time;durP1;ratioP1;P1;durP2;ratioP2;P2;SDS_P1;SDS_P2;PMS_P1;PMS_P2;Temp;Humidity;BMP_temperature;BMP_pressure;BME280_temperature;BME280_humidity;BME280_pressure;Samples;Min_cycle;Max_cycle;Signal;HPM_P1;HPM_P2
2023/06/26 00:01:31;;;;;;;;;4.50;2.75;;;;;27.04;41.30;101248.63;4975945;28;45366;-40
2023/06/26 00:03:57;;;;;;;;;5.00;4.00;;;;;27.04;41.50;101253.09;4977318;28;45543;-44
2023/06/26 00:06:25;;;;;;;;;2.00;2.00;;;;;27.03;41.29;101252.25;4976940;28;46136;-42
2023/06/26 00:08:52;;;;;;;;;6.50;3.75;;;;;27.03;41.34;101257.56;4975592;28;45267;-43
2023/06/26 00:11:18;;;;;;;;;1.25;1.00;;;;;26.99;41.34;101251.66;4976910;28;46025;-42
2023/06/26 00:13:44;;;;;;;;;3.75;3.75;;;;;27.01;41.52;101254.16;4977011;28;45391;-40
2023/06/26 00:16:09;;;;;;;;;3.00;3.00;;;;;27.02;41.69;101263.84;4975513;28;46670;-40
2023/06/26 00:18:34;;;;;;;;;3.25;2.25;;;;;27.01;41.44;101259.50;4976810;28;45435;-43
2023/06/26 00:21:00;;;;;;;;;5.00;3.00;;;;;27.00;41.21;101257.78;4977088;28;45901;-42
2023/06/26 00:23:26;;;;;;;;;5.00;3.75;;;;;26.98;41.36;101260.59;4976905;28;45433;-40
2023/06/26 00:25:51;;;;;;;;;5.00;3.50;;;;;26.98;41.45;101271.22;4976329;28;46155;-43
2023/06/26 00:28:16;;;;;;;;;4.00;3.25;;;;;26.96;41.41;101267.81;4975939;28;62705;-42
2023/06/26 00:30:42;;;;;;;;;3.25;3.25;;;;;26.95;41.24;101270.63;4976561;28;45368;-42
2023/06/26 00:33:07;;;;;;;;;3.00;3.00;;;;;26.93;41.01;101268.06;4976930;28;45340;-40
2023/06/26 00:35:33;;;;;;;;;3.00;2.00;;;;;26.95;41.37;101268.78;4975405;28;47343;-42
2023/06/26 00:37:58;;;;;;;;;2.00;2.00;;;;;26.91;41.32;101269.16;4976870;28;45194;-42
2023/06/26 00:40:25;;;;;;;;;3.00;3.00;;;;;26.90;41.34;101270.94;4975258;28;45233;-42
2023/06/26 00:42:50;;;;;;;;;4.50;2.75;;;;;26.92;41.00;101281.47;4976648;28;45567;-42
2023/06/26 00:45:16;;;;;;;;;4.00;3.00;;;;;26.90;41.15;101284.22;4976196;28;46473;-40
2023/06/26 00:47:41;;;;;;;;;3.50;3.50;;;;;26.89;41.37;101279.91;4976423;28;45210;-41
2023/06/26 00:50:08;;;;;;;;;2.25;2.25;;;;;26.88;40.98;101280.00;4976495;28;45237;-41
2023/06/26 00:52:33;;;;;;;;;6.25;4.00;;;;;26.87;41.03;101280.97;4976949;28;45487;-41
2023/06/26 00:54:59;;;;;;;;;3.25;3.00;;;;;26.81;41.21;101275.16;4976181;28;45525;-40
2023/06/26 00:57:24;;;;;;;;;3.75;3.75;;;;;26.83;41.29;101283.88;4976313;28;45407;-40
2023/06/26 00:59:50;;;;;;;;;3.00;3.00;;;;;26.83;41.25;101285.69;4974986;28;45407;-41
2023/06/26 01:02:19;;;;;;;;;5.00;4.00;;;;;26.78;41.46;101275.38;4976767;28;45467;-40
2023/06/26 01:04:49;;;;;;;;;1.25;1.25;;;;;26.80;41.55;101284.09;4979395;28;47248;-46
2023/06/26 01:07:18;;;;;;;;;3.00;3.00;;;;;26.79;41.36;101285.06;4979504;28;45356;-42
2023/06/26 01:09:45;;;;;;;;;4.25;4.25;;;;;26.80;41.38;101294.75;4979565;28;45369;-44
2023/06/26 01:12:10;;;;;;;;;4.00;3.00;;;;;26.79;41.70;101295.69;4979768;28;45190;-42
2023/06/26 01:14:36;;;;;;;;;2.50;2.50;;;;;26.76;41.77;101293.22;4979312;28;45725;-43
2023/06/26 01:17:02;;;;;;;;;3.00;3.00;;;;;26.75;41.54;101291.53;4979664;28;45557;-44
2023/06/26 01:19:30;;;;;;;;;3.25;2.25;;;;;26.78;41.40;101299.31;4979439;28;45320;-44
2023/06/26 01:22:14;;;;;;;;;2.00;2.00;;;;;26.78;41.62;101301.97;4979489;28;46003;-44
2023/06/26 01:24:51;;;;;;;;;3.00;3.00;;;;;26.78;41.52;101303.81;4979105;28;46641;-42
2023/06/26 01:27:21;;;;;;;;;2.75;2.75;;;;;26.76;41.54;101306.53;4977280;28;45419;-43
2023/06/26 01:29:48;;;;;;;;;0.50;0.50;;;;;26.75;41.51;101306.66;4979222;28;45283;-45
2023/06/26 01:32:14;;;;;;;;;4.00;2.00;;;;;26.75;41.45;101315.47;4978135;28;45574;-42
2023/06/26 01:34:39;;;;;;;;;3.00;3.00;;;;;26.75;41.42;101318.13;4978976;28;45422;-41
2023/06/26 01:37:05;;;;;;;;;1.25;1.25;;;;;26.76;41.48;101319.00;4979292;28;45431;-41
2023/06/26 01:39:30;;;;;;;;;3.00;3.00;;;;;26.75;41.71;101323.44;4979173;28;45430;-40
2023/06/26 01:41:55;;;;;;;;;2.00;2.00;;;;;26.75;41.63;101328.75;4979212;28;45292;-40
2023/06/26 01:44:28;;;;;;;;;4.00;3.50;;;;;26.74;41.67;101323.56;4978797;28;45315;-40
2023/06/26 01:47:05;;;;;;;;;3.00;3.00;;;;;26.72;41.77;101337.00;4979020;28;45408;-41
2023/06/26 01:49:49;;;;;;;;;3.75;2.75;;;;;26.71;41.67;101343.25;4978977;28;45430;-42
2023/06/26 01:52:26;;;;;;;;;3.00;3.00;;;;;26.70;41.98;101350.38;4979158;28;45381;-41
2023/06/26 01:55:07;;;;;;;;;1.50;1.50;;;;;26.67;41.58;101333.81;4978789;28;47305;-43
2023/06/26 01:57:35;;;;;;;;;3.25;3.25;;;;;26.69;41.55;101351.34;4978907;28;45333;-41
2023/06/26 02:00:02;;;;;;;;;5.25;3.75;;;;;26.69;41.51;101346.03;4978895;28;45336;-42
2023/06/26 02:02:29;;;;;;;;;4.25;4.25;;;;;26.68;41.89;101354.94;4978798;28;45315;-42
2023/06/26 02:04:54;;;;;;;;;8.00;4.25;;;;;26.65;41.53;101349.03;4977037;28;47579;-42
2023/06/26 02:07:20;;;;;;;;;3.50;3.50;;;;;26.66;41.57;101356.91;4978502;28;47041;-41
2023/06/26 02:09:45;;;;;;;;;8.25;5.00;;;;;26.65;41.52;101367.63;4978677;28;45360;-44
2023/06/26 02:12:10;;;;;;;;;4.00;4.00;;;;;26.63;41.44;101366.88;4978679;28;45511;-42
2023/06/26 02:14:36;;;;;;;;;3.00;3.00;;;;;26.65;41.34;101367.63;4977953;28;57500;-42
2023/06/26 02:17:01;;;;;;;;;3.00;3.00;;;;;26.63;41.54;101366.88;4978447;28;45388;-43
2023/06/26 02:19:27;;;;;;;;;3.50;3.00;;;;;26.59;41.21;101373.41;4976981;28;49327;-42
2023/06/26 02:21:56;;;;;;;;;4.25;3.00;;;;;26.61;40.92;101374.16;4978464;28;45321;-42
2023/06/26 02:24:21;;;;;;;;;2.75;2.50;;;;;26.61;41.35;101379.47;4978193;28;46346;-45
2023/06/26 02:26:46;;;;;;;;;4.00;1.75;;;;;26.59;41.02;101376.06;4978249;28;45583;-40
2023/06/26 02:29:12;;;;;;;;;2.00;2.00;;;;;26.54;40.89;101379.91;4978453;28;45411;-42
2023/06/26 02:31:38;;;;;;;;;3.00;3.00;;;;;26.48;41.00;101375.03;4978757;28;45563;-40
2023/06/26 02:34:03;;;;;;;;;2.00;2.00;;;;;26.42;40.76;101378.13;4978091;28;45421;-41
2023/06/26 02:36:29;;;;;;;;;4.75;2.00;;;;;26.36;40.76;101374.09;4978064;28;45257;-41
2023/06/26 02:38:54;;;;;;;;;6.75;2.00;;;;;26.30;40.53;101382.53;4978291;28;45283;-42
2023/06/26 02:41:19;;;;;;;;;1.50;1.50;;;;;26.24;40.75;101393.56;4977829;28;45299;-42
2023/06/26 02:43:45;;;;;;;;;3.75;2.00;;;;;26.15;40.74;101389.78;4978014;28;46434;-41
2023/06/26 02:46:10;;;;;;;;;2.00;2.00;;;;;26.14;40.57;101393.41;4978255;28;45421;-41
2023/06/26 02:48:35;;;;;;;;;2.00;2.00;;;;;26.11;40.48;101404.25;4978493;28;45403;-41
2023/06/26 02:51:01;;;;;;;;;2.00;2.00;;;;;26.04;40.61;101408.25;4976845;28;45528;-43
2023/06/26 02:53:26;;;;;;;;;2.00;2.00;;;;;25.98;40.17;101398.06;4977491;28;55023;-43
2023/06/26 02:55:51;;;;;;;;;1.25;1.25;;;;;25.90;40.41;101409.22;4977761;28;45309;-43
2023/06/26 02:58:17;;;;;;;;;1.75;1.75;;;;;25.88;40.82;101413.78;4977539;28;49409;-40
2023/06/26 03:00:43;;;;;;;;;3.50;1.75;;;;;25.84;40.29;101407.84;4977317;28;55736;-41
2023/06/26 03:03:09;;;;;;;;;3.50;2.00;;;;;25.80;40.63;101411.66;4977821;28;46626;-42
2023/06/26 03:05:34;;;;;;;;;1.00;1.00;;;;;25.76;40.73;101410.16;4977796;28;45443;-42
2023/06/26 03:07:59;;;;;;;;;0.25;0.25;;;;;25.70;40.35;101411.44;4977943;28;45451;-42
2023/06/26 03:10:24;;;;;;;;;0.50;0.50;;;;;25.67;40.42;101406.34;4977749;28;45586;-45
2023/06/26 03:12:50;;;;;;;;;4.00;2.00;;;;;25.64;40.37;101419.84;4977403;28;46146;-44
2023/06/26 03:15:15;;;;;;;;;2.25;1.00;;;;;25.58;40.57;101414.94;4977542;28;45397;-40
2023/06/26 03:17:41;;;;;;;;;3.00;2.00;;;;;25.54;40.99;101405.50;4977929;28;45385;-41
2023/06/26 03:20:07;;;;;;;;;1.00;1.00;;;;;25.52;40.76;101408.22;4977674;28;45368;-43
2023/06/26 03:22:33;;;;;;;;;1.00;1.00;;;;;25.50;41.10;101417.25;4977456;28;46205;-41
2023/06/26 03:24:59;;;;;;;;;1.25;1.25;;;;;25.50;41.21;101423.44;4976710;28;45453;-43
2023/06/26 03:27:24;;;;;;;;;2.50;2.00;;;;;25.46;41.20;101419.28;4977398;28;45189;-41
2023/06/26 03:29:49;;;;;;;;;1.00;1.00;;;;;25.47;41.20;101424.47;4977544;28;45247;-42
2023/06/26 03:32:15;;;;;;;;;3.00;1.00;;;;;25.45;41.42;101418.44;4977438;28;45411;-40
2023/06/26 03:34:40;;;;;;;;;1.25;1.25;;;;;25.43;41.37;101427.44;4977626;28;45289;-41
2023/06/26 03:37:05;;;;;;;;;1.00;1.00;;;;;25.43;41.37;101432.75;4976848;28;57166;-40
2023/06/26 03:39:31;;;;;;;;;2.00;2.00;;;;;25.42;41.06;101431.91;4977476;28;45214;-41
2023/06/26 03:42:00;;;;;;;;;3.75;2.00;;;;;25.41;41.29;101426.72;4977055;28;46673;-42
2023/06/26 03:44:25;;;;;;;;;2.25;1.75;;;;;25.39;41.72;101439.19;4977240;28;45715;-42
2023/06/26 03:46:50;;;;;;;;;2.50;1.25;;;;;25.37;41.70;101446.41;4977347;28;45352;-42
2023/06/26 03:49:16;;;;;;;;;1.75;1.75;;;;;25.35;41.18;101453.59;4977494;28;45387;-43
2023/06/26 03:51:41;;;;;;;;;2.00;2.00;;;;;25.33;41.32;101469.63;4977409;28;46451;-41
2023/06/26 03:54:07;;;;;;;;;1.00;1.00;;;;;25.28;41.80;101459.34;4977055;28;45366;-42
2023/06/26 03:56:32;;;;;;;;;3.25;2.00;;;;;25.27;41.44;101468.25;4977035;28;45380;-41
2023/06/26 03:58:57;;;;;;;;;2.00;2.00;;;;;25.23;41.43;101463.25;4976649;28;50416;-40
2023/06/26 04:01:23;;;;;;;;;2.00;2.00;;;;;25.19;41.97;101465.22;4976842;28;45507;-41
2023/06/26 04:03:48;;;;;;;;;2.50;2.50;;;;;25.20;41.92;101474.88;4976675;28;45266;-42
2023/06/26 04:06:13;;;;;;;;;1.00;1.00;;;;;25.16;41.68;101476.06;4977207;28;45291;-41
2023/06/26 04:08:39;;;;;;;;;2.50;2.50;;;;;25.13;42.21;101476.25;4977272;28;45327;-41
2023/06/26 04:11:04;;;;;;;;;4.75;2.00;;;;;25.11;42.18;101473.69;4976114;28;61222;-42
2023/06/26 04:13:29;;;;;;;;;3.50;3.00;;;;;25.14;42.31;101488.56;4976793;28;45379;-43
2023/06/26 04:15:55;;;;;;;;;2.75;2.00;;;;;25.14;41.85;101485.91;4976897;28;45297;-40
2023/06/26 04:18:20;;;;;;;;;1.75;1.75;;;;;25.12;42.08;101490.44;4976891;28;45210;-40
2023/06/26 04:21:08;;;;;;;;;4.50;3.50;;;;;25.12;42.01;101501.06;4977024;28;47347;-41
2023/06/26 04:23:34;;;;;;;;;1.00;1.00;;;;;25.11;42.09;101494.03;4976672;28;45345;-42
2023/06/26 04:26:00;;;;;;;;;4.00;2.75;;;;;25.09;41.82;101498.59;4976550;28;45383;-42
2023/06/26 04:28:26;;;;;;;;;2.25;2.25;;;;;25.05;42.24;101500.59;4976868;28;45514;-42
2023/06/26 04:30:51;;;;;;;;;2.00;2.00;;;;;25.04;42.02;101503.38;4976524;28;46011;-40
2023/06/26 04:33:16;;;;;;;;;2.25;2.25;;;;;25.01;42.63;101505.25;4976768;28;45348;-41
2023/06/26 04:35:44;;;;;;;;;4.00;2.00;;;;;24.99;42.30;101499.19;4976794;28;45305;-42
2023/06/26 04:38:10;;;;;;;;;4.00;3.00;;;;;24.98;42.21;101509.91;4979481;28;45398;-40
2023/06/26 04:40:35;;;;;;;;;2.75;1.50;;;;;24.94;42.67;101506.59;4979884;28;46304;-41
2023/06/26 04:43:00;;;;;;;;;4.25;2.00;;;;;24.95;42.68;101513.63;4979762;28;45490;-42
2023/06/26 04:45:26;;;;;;;;;2.50;2.00;;;;;24.90;42.38;101494.47;4979353;28;57779;-43
2023/06/26 04:47:51;;;;;;;;;2.00;1.00;;;;;24.91;42.58;101508.59;4980075;28;45167;-43
2023/06/26 04:50:18;;;;;;;;;4.25;2.50;;;;;24.89;42.62;101511.34;4979728;28;56505;-42
2023/06/26 04:52:44;;;;;;;;;1.75;1.75;;;;;24.88;42.50;101512.28;4980035;28;45402;-40
2023/06/26 04:55:09;;;;;;;;;2.50;2.00;;;;;24.86;42.98;101508.88;4979798;28;45300;-43
2023/06/26 04:57:34;;;;;;;;;8.25;4.00;;;;;24.86;43.08;101516.81;4979977;28;45372;-40
2023/06/26 05:00:00;;;;;;;;;3.00;2.33;;;;;24.83;42.97;101517.88;4978858;28;65535;-39
2023/06/26 05:02:26;;;;;;;;;4.00;2.25;;;;;24.82;43.11;101518.00;4979343;28;45249;-42
2023/06/26 05:04:52;;;;;;;;;4.00;2.00;;;;;24.82;42.58;101521.47;4979474;28;45353;-43
2023/06/26 05:07:17;;;;;;;;;2.00;1.00;;;;;24.83;42.89;101517.03;4980139;28;45428;-43
2023/06/26 05:09:42;;;;;;;;;1.25;1.25;;;;;24.81;43.11;101513.63;4978135;28;48278;-41
2023/06/26 05:12:08;;;;;;;;;4.00;2.00;;;;;24.86;43.01;101522.13;4979437;28;45296;-43
2023/06/26 05:14:33;;;;;;;;;2.00;2.00;;;;;24.84;42.52;101526.69;4979535;28;45412;-44
2023/06/26 05:16:58;;;;;;;;;2.00;2.00;;;;;24.90;43.12;101539.56;4979760;28;45312;-42
2023/06/26 05:19:24;;;;;;;;;5.00;3.00;;;;;24.91;42.76;101535.13;4978985;28;54639;-42
2023/06/26 05:21:50;;;;;;;;;2.00;2.00;;;;;24.91;43.04;101535.97;4979479;28;45225;-44
2023/06/26 05:24:16;;;;;;;;;3.75;2.00;;;;;24.90;43.17;101536.06;4979640;28;45332;-40
2023/06/26 05:26:42;;;;;;;;;6.25;2.75;;;;;24.86;42.88;101538.03;4979195;28;45423;-42
2023/06/26 05:29:08;;;;;;;;;2.00;2.00;;;;;24.90;42.75;101542.22;4979093;28;46327;-42
2023/06/26 05:31:40;;;;;;;;;3.00;2.75;;;;;24.86;42.67;101540.69;4979162;28;45238;-41
2023/06/26 05:34:07;;;;;;;;;4.00;2.00;;;;;24.90;43.32;101544.88;4979326;28;45190;-42
2023/06/26 05:36:34;;;;;;;;;4.25;3.00;;;;;24.90;42.62;101549.31;4979375;28;45241;-42
2023/06/26 05:38:59;;;;;;;;;5.50;4.50;;;;;24.90;42.66;101550.16;4978996;28;46462;-43
2023/06/26 05:41:25;;;;;;;;;2.25;2.25;;;;;24.89;43.21;101548.47;4979010;28;45388;-42
2023/06/26 05:43:50;;;;;;;;;4.75;3.50;;;;;24.91;43.17;101557.19;4979500;28;45419;-42
2023/06/26 05:46:16;;;;;;;;;3.00;3.00;;;;;24.93;43.14;101546.47;4959085;28;45714;-42
2023/06/26 05:48:41;;;;;;;;;5.00;3.75;;;;;24.96;42.76;101548.94;4957965;28;46528;-45
2023/06/26 05:51:07;;;;;;;;;2.00;2.00;;;;;24.96;42.72;101549.78;4958626;28;45509;-40
2023/06/26 05:53:32;;;;;;;;;4.75;3.00;;;;;25.00;43.21;101540.69;4958728;28;45531;-42
2023/06/26 05:55:58;;;;;;;;;4.00;4.00;;;;;25.03;43.11;101549.41;4958756;28;45444;-43
2023/06/26 05:58:27;;;;;;;;;4.75;3.00;;;;;25.05;42.99;101553.66;4958592;28;47159;-43
2023/06/26 06:00:52;;;;;;;;;2.75;2.00;;;;;25.07;42.48;101545.59;4958887;28;45364;-43
2023/06/26 06:03:17;;;;;;;;;5.50;5.00;;;;;25.09;42.35;101546.34;4958958;28;45632;-41
2023/06/26 06:05:43;;;;;;;;;4.25;4.25;;;;;25.10;42.65;101550.69;4959704;28;45290;-43
2023/06/26 06:08:08;;;;;;;;;5.00;5.00;;;;;25.12;42.21;101554.09;4959196;28;45564;-41
2023/06/26 06:10:34;;;;;;;;;5.00;4.00;;;;;25.11;42.24;101542.66;4958024;28;45461;-41
2023/06/26 06:12:59;;;;;;;;;8.00;6.00;;;;;25.14;42.63;101558.34;4959298;28;45298;-40
2023/06/26 06:15:24;;;;;;;;;4.50;4.50;;;;;25.12;42.36;101549.66;4959472;28;45627;-43
2023/06/26 06:17:50;;;;;;;;;5.50;3.25;;;;;25.14;42.42;101552.22;4959199;28;46507;-42
2023/06/26 06:20:17;;;;;;;;;5.00;5.00;;;;;25.16;42.35;101552.97;4959149;28;45305;-42
2023/06/26 06:22:42;;;;;;;;;7.50;4.50;;;;;25.13;42.46;101555.81;4959097;28;45441;-40
2023/06/26 06:25:08;;;;;;;;;4.50;3.00;;;;;25.15;42.11;101565.38;4959138;28;45396;-41
2023/06/26 06:27:33;;;;;;;;;4.00;3.00;;;;;25.15;42.04;101562.72;4958829;28;46389;-47
2023/06/26 06:29:58;;;;;;;;;5.25;3.75;;;;;25.17;41.64;101567.94;4958181;28;63214;-47
2023/06/26 06:32:24;;;;;;;;;5.75;4.50;;;;;25.20;41.97;101575.69;4959270;28;45671;-41
2023/06/26 06:34:49;;;;;;;;;3.50;3.50;;;;;25.21;41.66;101574.75;4959170;28;45547;-43
2023/06/26 06:37:14;;;;;;;;;4.25;3.75;;;;;25.22;41.55;101581.75;4958691;28;45246;-41
2023/06/26 06:39:40;;;;;;;;;4.00;4.00;;;;;25.21;41.79;101589.81;4958761;28;45305;-40
2023/06/26 06:42:05;;;;;;;;;4.00;3.00;;;;;25.19;41.93;101591.72;4958298;28;49699;-40
2023/06/26 06:44:30;;;;;;;;;4.00;2.50;;;;;25.21;41.98;101590.66;4958890;28;45702;-42
2023/06/26 06:46:56;;;;;;;;;3.75;2.25;;;;;25.20;41.76;101599.56;4958519;28;46297;-42
2023/06/26 06:49:21;;;;;;;;;3.00;3.00;;;;;25.21;41.85;101605.72;4958752;28;45400;-42
2023/06/26 06:51:46;;;;;;;;;3.00;3.00;;;;;25.16;42.10;101600.72;4958621;28;45185;-41
2023/06/26 06:54:12;;;;;;;;;2.75;2.75;;;;;25.18;41.65;101593.53;4958045;28;57315;-40
2023/06/26 06:56:37;;;;;;;;;5.00;3.00;;;;;25.21;41.70;101609.22;4958229;28;46476;-43
2023/06/26 06:59:03;;;;;;;;;3.50;2.75;;;;;25.21;41.64;101605.72;4958391;28;45331;-39
2023/06/26 07:01:28;;;;;;;;;2.00;2.00;;;;;25.20;42.01;101594.25;4957120;28;45779;-42
2023/06/26 07:03:53;;;;;;;;;3.25;3.25;;;;;25.17;41.77;101590.00;4958808;28;45236;-40
2023/06/26 07:06:19;;;;;;;;;3.75;2.75;;;;;25.17;41.80;101599.78;4956646;28;58133;-41
2023/06/26 07:08:44;;;;;;;;;5.00;5.00;;;;;25.19;41.70;101603.16;4958173;28;45486;-42
2023/06/26 07:11:09;;;;;;;;;6.25;3.75;;;;;25.19;41.52;101608.47;4970292;28;59587;-42
2023/06/26 07:13:34;;;;;;;;;5.00;4.00;;;;;25.16;41.98;101606.03;4977905;28;45365;-43
2023/06/26 07:16:00;;;;;;;;;3.00;3.00;;;;;25.17;41.29;101595.31;4977503;28;46184;-42
2023/06/26 07:18:25;;;;;;;;;2.75;2.75;;;;;25.13;41.83;101596.47;4977876;28;45335;-41
2023/06/26 07:20:50;;;;;;;;;3.25;3.25;;;;;25.16;41.13;101603.38;4977661;28;45380;-40
2023/06/26 07:23:16;;;;;;;;;4.50;4.00;;;;;25.19;41.34;101607.63;4977768;28;45307;-41
2023/06/26 07:25:41;;;;;;;;;4.25;4.25;;;;;25.22;41.25;101602.97;4976796;28;62305;-42
2023/06/26 07:28:11;;;;;;;;;3.75;3.75;;;;;25.20;41.19;101604.03;4977361;28;45359;-42
2023/06/26 07:30:36;;;;;;;;;4.00;4.00;;;;;25.23;41.38;101620.59;4977553;28;45408;-42
2023/06/26 07:33:02;;;;;;;;;4.25;3.00;;;;;25.24;41.50;101618.81;4977600;28;45477;-41
2023/06/26 07:35:27;;;;;;;;;4.00;4.00;;;;;25.22;41.57;101618.88;4977679;28;45611;-42
2023/06/26 07:37:53;;;;;;;;;4.00;4.00;;;;;25.21;40.76;101616.34;4975944;28;45605;-40
2023/06/26 07:40:18;;;;;;;;;4.00;4.00;;;;;25.21;41.29;101616.34;4977357;28;45433;-41
2023/06/26 07:42:43;;;;;;;;;5.00;4.00;;;;;25.21;41.18;101611.88;4977373;28;45534;-40
2023/06/26 07:45:11;;;;;;;;;4.50;3.00;;;;;25.21;40.84;101621.66;4977162;28;47705;-42
2023/06/26 07:47:38;;;;;;;;;5.75;4.75;;;;;25.17;40.57;101624.50;4977030;28;45344;-42
2023/06/26 07:50:03;;;;;;;;;4.75;4.50;;;;;25.22;41.38;101633.97;4977201;28;45450;-42
2023/06/26 07:52:30;;;;;;;;;6.75;5.00;;;;;25.22;41.27;101626.00;4977658;28;45630;-45
2023/06/26 07:54:55;;;;;;;;;4.50;4.00;;;;;25.22;40.70;101626.84;4977148;28;46218;-41
2023/06/26 07:57:21;;;;;;;;;3.50;3.00;;;;;25.18;40.98;101625.34;4977069;28;45355;-43
2023/06/26 07:59:46;;;;;;;;;4.75;4.00;;;;;25.19;40.71;101632.34;4977155;28;45249;-42
2023/06/26 08:02:11;;;;;;;;;5.25;3.00;;;;;25.18;40.85;101633.31;4976931;28;45190;-42
2023/06/26 08:04:37;;;;;;;;;3.50;3.50;;;;;25.16;40.60;101633.41;4976334;28;55746;-44
2023/06/26 08:07:03;;;;;;;;;2.50;2.25;;;;;25.16;40.83;101630.75;4976863;28;45256;-43
2023/06/26 08:09:29;;;;;;;;;3.25;3.00;;;;;25.16;40.17;101630.75;4977322;28;45250;-42
2023/06/26 08:11:56;;;;;;;;;3.50;3.25;;;;;25.16;40.59;101635.22;4976656;28;45368;-42
2023/06/26 08:14:21;;;;;;;;;4.25;3.25;;;;;25.17;40.23;101636.91;4976856;28;45426;-41
2023/06/26 08:16:47;;;;;;;;;5.00;4.00;;;;;25.19;40.51;101640.28;4976707;28;45391;-40
2023/06/26 08:19:14;;;;;;;;;4.00;2.00;;;;;25.18;40.44;101638.63;4976785;28;45312;-42
2023/06/26 08:21:40;;;;;;;;;4.75;3.25;;;;;25.22;40.36;101641.94;4975766;28;45252;-43
2023/06/26 08:24:06;;;;;;;;;4.75;3.00;;;;;25.23;40.45;101649.78;4976524;28;45588;-41
2023/06/26 08:26:31;;;;;;;;;5.25;4.25;;;;;25.24;39.88;101651.47;4976871;28;45297;-44
2023/06/26 08:28:56;;;;;;;;;5.75;4.00;;;;;25.23;40.24;101647.13;4977124;28;45356;-44
2023/06/26 08:31:22;;;;;;;;;4.25;2.75;;;;;25.26;39.96;101646.94;4976607;28;45206;-46
2023/06/26 08:33:47;;;;;;;;;3.00;3.00;;;;;25.28;40.33;101644.19;4976522;28;46151;-40
2023/06/26 08:36:13;;;;;;;;;3.75;3.75;;;;;25.29;39.84;101646.75;4976123;28;54617;-40
2023/06/26 08:38:40;;;;;;;;;2.50;2.00;;;;;25.28;39.82;101638.88;4976587;28;45364;-42
2023/06/26 08:41:07;;;;;;;;;4.75;3.75;;;;;25.29;39.56;101638.81;4976716;28;45387;-42
2023/06/26 08:43:33;;;;;;;;;2.25;2.25;;;;;25.24;39.24;101630.25;4974857;28;45423;-44
2023/06/26 08:45:59;;;;;;;;;2.75;2.75;;;;;25.28;39.40;101634.44;4976568;28;45383;-42
2023/06/26 08:48:25;;;;;;;;;6.00;2.50;;;;;25.28;39.22;101641.53;4976617;28;45197;-44
2023/06/26 08:50:53;;;;;;;;;2.50;2.50;;;;;25.29;39.48;101649.41;4975417;28;45560;-44
2023/06/26 08:53:33;;;;;;;;;4.00;2.75;;;;;25.28;39.65;101647.69;4976389;28;45692;-42
2023/06/26 08:55:59;;;;;;;;;4.50;3.00;;;;;25.29;39.37;101641.44;4976522;28;45741;-43
2023/06/26 08:58:25;;;;;;;;;5.75;3.25;;;;;25.29;39.54;101641.44;4976549;28;45336;-43
2023/06/26 09:00:50;;;;;;;;;2.75;2.75;;;;;25.31;39.21;101633.38;4976587;28;45567;-40
2023/06/26 09:03:17;;;;;;;;;5.00;3.00;;;;;25.33;39.07;101642.09;4975960;28;46503;-40
2023/06/26 09:05:42;;;;;;;;;3.00;3.00;;;;;25.35;39.20;101644.66;4976263;28;45681;-42
2023/06/26 09:08:08;;;;;;;;;5.00;3.50;;;;;25.34;39.16;101646.47;4976376;28;45264;-43
2023/06/26 09:10:34;;;;;;;;;4.50;3.25;;;;;25.36;39.11;101646.34;4976301;28;47212;-40
2023/06/26 09:13:01;;;;;;;;;4.00;3.00;;;;;25.38;38.94;101639.16;4976256;28;46242;-41
2023/06/26 09:15:28;;;;;;;;;4.25;2.00;;;;;25.35;38.58;101636.69;4975999;28;45305;-43
2023/06/26 09:17:56;;;;;;;;;3.50;2.25;;;;;25.37;38.88;101632.16;4976226;28;45300;-41
2023/06/26 09:20:22;;;;;;;;;3.75;3.75;;;;;25.36;38.66;101635.75;4976343;28;45190;-40
2023/06/26 09:22:48;;;;;;;;;2.50;2.50;;;;;25.33;38.20;101636.78;4975776;28;50301;-39
2023/06/26 09:25:14;;;;;;;;;4.00;4.00;;;;;25.34;38.13;101640.28;4978920;28;45612;-40
2023/06/26 09:27:39;;;;;;;;;3.75;3.00;;;;;25.31;37.61;101638.69;4979285;28;45391;-40
2023/06/26 09:30:09;;;;;;;;;4.00;3.00;;;;;25.32;37.73;101643.88;4979682;28;45450;-43
2023/06/26 09:32:37;;;;;;;;;2.00;2.00;;;;;25.32;38.25;101641.22;4979447;28;45445;-41
2023/06/26 09:35:03;;;;;;;;;4.00;3.75;;;;;25.31;38.32;101638.69;4979470;28;45733;-41
2023/06/26 09:37:29;;;;;;;;;4.25;1.50;;;;;25.33;38.01;101642.09;4979340;28;45217;-40
2023/06/26 09:39:54;;;;;;;;;4.25;2.00;;;;;25.36;38.12;101641.03;4979284;28;45327;-41
2023/06/26 09:42:20;;;;;;;;;3.50;3.00;;;;;25.37;37.46;101645.41;4978822;28;45614;-42
2023/06/26 09:44:47;;;;;;;;;4.00;3.00;;;;;25.37;37.29;101642.75;4979074;28;45389;-41
2023/06/26 09:47:15;;;;;;;;;7.00;3.00;;;;;25.36;37.36;101641.88;4978976;28;45371;-47
2023/06/26 09:49:42;;;;;;;;;1.50;1.25;;;;;25.38;36.59;101644.47;4979205;28;45329;-42
2023/06/26 09:52:08;;;;;;;;;4.50;3.25;;;;;25.37;37.09;101642.75;4978845;28;46323;-41
2023/06/26 09:54:33;;;;;;;;;4.75;3.25;;;;;25.38;37.10;101655.91;4979140;28;45420;-40
2023/06/26 09:57:09;;;;;;;;;5.00;3.00;;;;;25.36;37.50;101647.19;4978260;28;58560;-42
2023/06/26 09:59:35;;;;;;;;;4.25;3.25;;;;;25.40;37.30;101653.19;4979397;28;45352;-42
2023/06/26 10:02:00;;;;;;;;;4.00;3.00;;;;;25.40;36.46;101653.19;4978579;28;45497;-42
2023/06/26 10:04:26;;;;;;;;;2.75;2.00;;;;;25.41;37.04;101654.94;4978566;28;45388;-42
2023/06/26 10:06:55;;;;;;;;;2.75;2.75;;;;;25.42;36.64;101649.50;4978789;28;45309;-42
2023/06/26 10:09:22;;;;;;;;;2.00;2.00;;;;;25.44;36.14;101660.00;4978999;28;45526;-43
2023/06/26 10:11:57;;;;;;;;;3.50;3.00;;;;;25.44;36.22;101654.72;4977444;28;48619;-43
2023/06/26 10:14:27;;;;;;;;;4.00;3.25;;;;;25.42;35.87;101659.25;4978608;28;45241;-43
2023/06/26 10:16:58;;;;;;;;;2.75;1.00;;;;;25.45;36.39;101662.59;4978566;28;45276;-40
2023/06/26 10:19:26;;;;;;;;;2.00;2.00;;;;;25.46;35.73;101666.09;4978782;28;45491;-42
2023/06/26 10:21:55;;;;;;;;;5.00;3.00;;;;;25.47;35.93;101654.53;4978099;28;46527;-43
2023/06/26 10:24:25;;;;;;;;;3.00;3.00;;;;;25.49;36.00;101659.72;4978341;28;45336;-42
2023/06/26 10:26:57;;;;;;;;;2.00;2.00;;;;;25.45;35.56;101659.06;4978511;28;45343;-40
2023/06/26 10:29:25;;;;;;;;;2.75;1.00;;;;;25.49;35.40;101657.94;4978492;28;45294;-43
2023/06/26 10:31:55;;;;;;;;;2.00;2.00;;;;;25.49;35.24;101663.25;4978069;28;45593;-41
2023/06/26 10:34:21;;;;;;;;;3.00;2.25;;;;;25.45;35.00;101662.59;4977816;28;45246;-41
2023/06/26 10:36:48;;;;;;;;;2.75;2.00;;;;;25.50;35.22;101654.34;4978249;28;45392;-40
2023/06/26 10:39:13;;;;;;;;;3.00;2.25;;;;;25.50;35.65;101664.09;4978358;28;45656;-42
2023/06/26 10:41:44;;;;;;;;;3.00;1.50;;;;;25.50;35.49;101662.28;4978165;28;46433;-42
2023/06/26 10:44:10;;;;;;;;;2.00;2.00;;;;;25.53;35.40;101667.38;4977023;28;45888;-43
2023/06/26 10:46:53;;;;;;;;;5.75;3.00;;;;;25.54;35.67;101661.13;4978451;28;45344;-42
2023/06/26 10:49:20;;;;;;;;;3.00;2.00;;;;;25.54;35.73;101663.78;4978370;28;45350;-42
2023/06/26 10:51:49;;;;;;;;;1.75;1.75;;;;;25.57;35.45;101665.41;4977807;28;47161;-43
2023/06/26 10:54:16;;;;;;;;;2.75;2.75;;;;;25.56;35.48;101667.19;4977915;28;45342;-42
2023/06/26 10:56:46;;;;;;;;;3.00;3.00;;;;;25.58;35.97;101656.47;4977913;28;45309;-44
2023/06/26 10:59:19;;;;;;;;;2.00;2.00;;;;;25.56;36.01;101659.22;4976756;28;45548;-43
2023/06/26 11:01:46;;;;;;;;;3.00;2.00;;;;;25.60;35.46;101659.88;4976178;28;46536;-44
2023/06/26 11:04:15;;;;;;;;;4.00;2.75;;;;;25.59;35.51;101667.00;4977669;28;45660;-43
2023/06/26 11:06:41;;;;;;;;;3.00;3.00;;;;;25.59;35.05;101647.56;4978070;28;45399;-43
2023/06/26 11:09:10;;;;;;;;;3.25;3.25;;;;;25.61;35.31;101649.19;4977026;28;45452;-42
2023/06/26 11:11:51;;;;;;;;;3.50;3.00;;;;;25.62;35.10;101653.56;4976253;28;45740;-42
2023/06/26 11:14:17;;;;;;;;;3.00;3.00;;;;;25.64;35.30;101666.72;4975907;28;45718;-43
2023/06/26 11:16:43;;;;;;;;;3.50;2.25;;;;;25.65;35.04;101651.63;4977701;28;45414;-43
2023/06/26 11:19:09;;;;;;;;;4.25;3.00;;;;;25.64;35.01;101666.72;4977535;28;54501;-44
2023/06/26 11:21:39;;;;;;;;;4.50;3.00;;;;;25.66;34.84;101653.31;4977366;28;45536;-42